createdAt,value
2018-11-22T12:20:36.094Z,14.33
2018-11-22T12:23:05.438Z,18.27
2018-11-22T12:25:34.623Z,22.03
2018-11-22T12:28:04.340Z,18.73
2018-11-22T12:30:34.430Z,20.10
2018-11-22T12:33:07.504Z,19.00
2018-11-22T12:35:46.808Z,16.83
2018-11-22T12:38:21.012Z,15.30
2018-11-22T12:40:50.166Z,16.03
2018-11-22T12:48:55.641Z,16.93
2018-11-22T12:51:30.142Z,18.63
2018-11-22T12:53:59.956Z,19.13
2018-11-22T12:56:29.076Z,25.00
2018-11-22T12:58:58.315Z,20.83
2018-11-22T13:01:27.692Z,21.87
2018-11-22T13:03:57.774Z,21.73
2018-11-22T13:06:26.850Z,16.57
2018-11-22T13:08:56.308Z,22.20
2018-11-22T13:11:25.498Z,21.47
2018-11-22T13:13:54.554Z,18.83
2018-11-22T13:16:23.842Z,17.53
2018-11-22T13:18:53.316Z,28.87
2018-11-22T13:21:22.481Z,20.87
2018-11-22T13:23:51.572Z,22.97
2018-11-22T13:26:20.913Z,20.47
2018-11-22T13:28:49.959Z,20.97
2018-11-22T13:31:19.257Z,19.93
2018-11-22T13:33:48.497Z,21.37
2018-11-22T13:36:18.327Z,23.40
2018-11-22T13:38:48.072Z,22.87
2018-11-22T13:41:18.424Z,20.50
2018-11-22T13:43:47.757Z,23.30
2018-11-22T13:46:18.335Z,23.10
2018-11-22T13:48:47.511Z,20.97
2018-11-22T13:51:17.099Z,23.90
2018-11-22T13:53:46.352Z,22.07
2018-11-22T13:56:15.481Z,26.37
2018-11-22T13:58:44.787Z,23.23
2018-11-22T14:01:13.903Z,25.33
2018-11-22T14:03:43.183Z,25.90
2018-11-22T14:06:12.706Z,23.90
2018-11-22T14:08:41.998Z,25.03
2018-11-22T14:11:14.052Z,29.97
2018-11-22T14:13:40.559Z,25.77
2018-11-22T14:16:10.317Z,30.83
2018-11-22T14:18:50.567Z,26.57
2018-11-22T14:21:19.805Z,31.23
2018-11-22T14:23:49.128Z,27.90
2018-11-22T14:26:18.308Z,27.77
2018-11-22T14:28:47.484Z,36.97
2018-11-22T14:31:16.938Z,29.83
2018-11-22T14:33:48.719Z,24.43
2018-11-22T14:36:17.744Z,31.33
2018-11-22T14:38:46.978Z,35.23
2018-11-22T14:41:16.243Z,28.93
2018-11-22T14:43:46.128Z,29.33
2018-11-22T14:46:15.244Z,29.57
2018-11-22T14:48:44.427Z,28.60
2018-11-22T14:51:18.660Z,28.63
2018-11-22T14:53:48.451Z,30.77
2018-11-22T14:56:17.650Z,29.27
2018-11-22T14:58:46.797Z,30.67
2018-11-22T15:01:16.223Z,32.80
2018-11-22T15:03:45.522Z,34.33
2018-11-22T15:06:14.778Z,29.43
2018-11-22T15:08:43.909Z,31.00
2018-11-22T15:11:13.258Z,32.13
2018-11-22T15:13:42.887Z,32.13
2018-11-22T15:16:12.314Z,38.87
2018-11-22T15:18:41.539Z,35.77
2018-11-22T15:21:10.835Z,31.50
2018-11-22T15:23:40.210Z,30.83
2018-11-22T15:26:09.367Z,41.07
2018-11-22T15:28:38.787Z,33.40
2018-11-22T15:31:08.079Z,35.37
2018-11-22T15:33:37.448Z,33.13
2018-11-22T15:36:06.703Z,28.93
2018-11-22T15:38:35.929Z,33.03
2018-11-22T15:41:05.140Z,33.20
2018-11-22T15:43:34.563Z,29.13
2018-11-22T15:46:04.766Z,32.83
2018-11-22T15:48:34.040Z,34.17
2018-11-22T15:51:03.332Z,37.20
2018-11-22T15:53:32.407Z,35.67
2018-11-22T15:56:03.067Z,30.80
2018-11-22T15:58:32.466Z,33.53
2018-11-22T16:01:01.879Z,33.67
2018-11-22T16:03:32.024Z,33.73
2018-11-22T16:06:01.312Z,43.60
2018-11-22T16:08:30.462Z,36.40
2018-11-22T16:10:59.723Z,30.47
2018-11-22T16:13:28.772Z,28.57
2018-11-22T16:15:58.797Z,38.55
2018-11-22T16:18:27.967Z,31.20
2018-11-22T16:20:57.983Z,31.23
2018-11-22T16:23:27.215Z,27.67
2018-11-22T16:25:58.935Z,29.37
2018-11-22T16:28:30.594Z,30.50
2018-11-22T16:30:59.818Z,30.73
2018-11-22T16:33:30.142Z,31.80
2018-11-22T16:35:59.969Z,34.33
2018-11-22T16:38:29.890Z,33.37
2018-11-22T16:41:00.243Z,34.43
2018-11-22T16:43:29.458Z,33.03
2018-11-22T16:45:58.463Z,30.57
2018-11-22T16:48:27.540Z,35.17
2018-11-22T16:50:56.642Z,30.47
2018-11-22T16:53:25.835Z,38.87
2018-11-22T16:55:59.344Z,36.10
2018-11-22T16:58:28.534Z,36.10
2018-11-22T17:00:58.890Z,35.43
2018-11-22T17:03:28.210Z,36.70
2018-11-22T17:05:57.529Z,39.60
2018-11-22T17:08:26.774Z,38.37
2018-11-22T17:10:56.384Z,36.63
2018-11-22T17:13:25.963Z,38.57
2018-11-22T17:15:55.435Z,39.93
2018-11-22T17:18:24.584Z,40.27
2018-11-22T17:20:53.890Z,36.90
2018-11-22T17:23:23.295Z,38.10
2018-11-22T17:25:52.588Z,34.80
2018-11-22T17:28:21.796Z,33.27
2018-11-22T17:30:50.831Z,33.53
2018-11-22T17:33:19.877Z,33.43
2018-11-22T17:35:48.889Z,36.33
2018-11-22T17:38:18.079Z,33.03
2018-11-22T17:40:51.010Z,37.80
2018-11-22T17:43:20.168Z,36.50
2018-11-22T17:45:50.697Z,40.23
2018-11-22T17:48:20.402Z,37.63
2018-11-22T17:50:49.977Z,32.93
2018-11-22T17:53:19.291Z,33.23
2018-11-22T17:55:48.758Z,38.97
2018-11-22T17:58:18.094Z,36.07
2018-11-22T18:00:50.516Z,32.87
2018-11-22T18:03:19.990Z,33.10
2018-11-22T18:05:49.902Z,35.27
2018-11-22T18:08:18.963Z,36.40
2018-11-22T18:10:48.089Z,40.23
2018-11-22T18:13:17.454Z,39.00
2018-11-22T18:15:51.572Z,34.97
2018-11-22T18:18:20.751Z,38.27
2018-11-22T18:20:49.923Z,34.97
2018-11-22T18:23:19.046Z,39.37
2018-11-22T18:25:49.070Z,38.33
2018-11-22T18:28:17.214Z,51.53
2018-11-22T18:30:46.299Z,40.73
2018-11-22T18:33:15.462Z,43.90
2018-11-22T18:35:44.875Z,36.73
2018-11-22T18:38:13.940Z,37.27
2018-11-22T18:40:43.933Z,35.30
2018-11-22T18:43:12.956Z,38.30
2018-11-22T18:45:43.447Z,35.53
2018-11-22T18:48:13.960Z,36.13
2018-11-22T18:50:43.383Z,36.80
2018-11-22T18:53:12.638Z,42.10
2018-11-22T18:55:41.885Z,43.63
2018-11-22T18:58:10.958Z,40.70
2018-11-22T19:00:42.486Z,43.37
2018-11-22T19:03:13.355Z,40.20
2018-11-22T19:05:42.545Z,40.10
2018-11-22T19:08:11.600Z,31.13
2018-11-22T19:10:41.780Z,39.80
2018-11-22T19:13:12.158Z,43.47
2018-11-22T19:15:42.679Z,36.60
2018-11-22T19:18:12.535Z,40.30
2018-11-22T19:20:43.894Z,34.20
2018-11-22T19:23:13.512Z,36.90
2018-11-22T19:25:48.132Z,37.87
2018-11-22T19:28:18.455Z,37.93
2018-11-22T19:30:48.540Z,36.77
2018-11-22T19:33:19.027Z,39.20
2018-11-22T19:35:50.282Z,36.20
2018-11-22T19:38:19.395Z,34.93
2018-11-22T19:40:48.580Z,39.43
2018-11-22T19:43:17.757Z,37.87
2018-11-22T19:45:48.273Z,40.03
2018-11-22T19:48:17.336Z,41.20
2018-11-22T19:50:46.386Z,34.63
2018-11-22T19:53:17.774Z,39.13
2018-11-22T19:55:46.810Z,37.97
2018-11-22T19:58:17.049Z,39.17
2018-11-22T20:00:46.077Z,39.43
2018-11-22T20:03:15.201Z,41.03
2018-11-22T20:05:44.825Z,38.40
2018-11-22T20:08:16.503Z,41.53
2018-11-22T20:10:46.204Z,44.97
2018-11-22T20:13:15.271Z,38.53
2018-11-22T20:15:44.476Z,44.00
2018-11-22T20:18:14.230Z,35.43
2018-11-22T20:20:49.531Z,36.07
2018-11-22T20:23:12.660Z,36.10
2018-11-22T20:25:41.880Z,42.50
2018-11-22T20:28:12.217Z,42.90
2018-11-22T20:30:44.022Z,38.20
2018-11-22T20:33:13.123Z,47.50
2018-11-22T20:35:42.187Z,41.73
2018-11-22T20:38:11.286Z,45.23
2018-11-22T20:40:40.984Z,43.50
2018-11-22T20:43:10.127Z,45.87
2018-11-22T20:45:40.978Z,46.17
2018-11-22T20:48:08.891Z,45.77
2018-11-22T20:50:38.399Z,54.03
2018-11-22T20:53:07.746Z,46.60
2018-11-22T20:55:38.130Z,43.03
2018-11-22T20:58:07.736Z,41.83
2018-11-22T21:00:38.710Z,48.80
2018-11-22T21:03:08.049Z,42.50
2018-11-22T21:05:37.338Z,44.57
2018-11-22T21:08:06.452Z,40.20
2018-11-22T21:10:35.791Z,41.63
2018-11-22T21:13:04.958Z,42.67
2018-11-22T21:15:34.598Z,45.03
2018-11-22T21:18:05.282Z,41.63
2018-11-22T21:20:36.096Z,39.07
2018-11-22T21:23:05.207Z,41.80
2018-11-22T21:25:34.253Z,41.17
2018-11-22T21:28:03.326Z,42.23
2018-11-22T21:30:33.660Z,39.53
2018-11-22T21:33:03.347Z,45.43
2018-11-22T21:35:33.041Z,45.07
2018-11-22T21:38:02.860Z,39.87
2018-11-22T21:40:32.583Z,38.13
2018-11-22T21:43:01.622Z,39.33
2018-11-22T21:45:31.373Z,43.20
2018-11-22T21:48:00.403Z,43.07
2018-11-22T21:50:29.848Z,43.67
2018-11-22T21:52:58.897Z,36.53
2018-11-22T21:55:29.194Z,42.37
2018-11-22T21:57:59.418Z,39.90
2018-11-22T22:00:34.450Z,40.73
2018-11-22T22:03:05.013Z,44.43
2018-11-22T22:05:34.174Z,44.73
2018-11-22T22:08:03.320Z,46.00
2018-11-22T22:10:32.554Z,41.90
2018-11-22T22:13:01.965Z,41.80
2018-11-22T22:15:32.377Z,47.40
2018-11-22T22:18:01.421Z,42.60
2018-11-22T22:20:33.718Z,43.30
2018-11-22T22:23:02.865Z,45.13
2018-11-22T22:25:32.223Z,45.30
2018-11-22T22:28:01.693Z,43.23
2018-11-22T22:30:32.297Z,42.97
2018-11-22T22:33:03.220Z,43.33
2018-11-22T22:35:32.290Z,42.23
2018-11-22T22:38:01.365Z,43.30
2018-11-22T22:40:31.402Z,41.23
2018-11-22T22:43:00.705Z,46.93
2018-11-22T22:45:31.344Z,42.43
2018-11-22T22:48:00.443Z,44.83
2018-11-22T22:50:31.056Z,45.23
2018-11-22T22:53:01.054Z,44.60
2018-11-22T22:55:30.513Z,44.83
2018-11-22T22:57:59.513Z,36.43
2018-11-22T23:00:34.045Z,39.37
2018-11-22T23:03:04.575Z,40.33
2018-11-22T23:05:33.941Z,39.50
2018-11-22T23:08:03.365Z,40.07
2018-11-22T23:10:32.518Z,40.40
2018-11-22T23:13:02.102Z,41.67
2018-11-22T23:15:31.971Z,36.53
2018-11-22T23:18:14.635Z,42.73
2018-11-22T23:21:01.726Z,38.43
2018-11-22T23:23:48.175Z,38.87
2018-11-22T23:26:18.044Z,42.03
2018-11-22T23:28:48.897Z,38.33
2018-11-22T23:31:36.430Z,42.40
2018-11-22T23:34:22.620Z,39.47
2018-11-22T23:37:08.143Z,41.07
2018-11-22T23:39:55.948Z,41.20
2018-11-22T23:42:44.390Z,38.20
2018-11-22T23:45:32.971Z,40.30
2018-11-22T23:48:22.409Z,37.03
2018-11-22T23:51:10.410Z,46.60
2018-11-22T23:53:58.241Z,39.27
2018-11-22T23:56:45.200Z,44.23
2018-11-22T23:59:33.760Z,43.47
